Terminal Aerodrome Forecast
Issued by NWS

Home | Current Version | Previous Version | Text Only | Print | Product List | Glossary On
Versions: 1 2 3 4 5 6 7 8 9 10 11 12 13 14 15 16
000
FTUS45 KGJT 211733
TAFEGE
TAF
KEGE 211733Z 2118/2218 23025G35KT P6SM FEW250
     FM212000 22025G40KT P6SM FEW140 FEW250
     FM220100 22015G25KT P6SM FEW140 FEW250
     FM220600 16012KT P6SM FEW130 FEW250
     FM221400 21007KT P6SM FEW070 SCT200
     FM221600 22012G25KT P6SM FEW060 SCT100
     FM221700 22015G35KT P6SM SCT070 BKN100=

USA.gov is the U.S. government's official web portal to all federal, state and local government web resources and services.